Portada
METAR-TAF:

METAR-TAF

Aeropuertos :

Aeropuerto internacional Jean-Lesage de Quebec

Quebec, Quebec, Canadá

latitud: 46-48N, longitud: 071-23W, altitud: 70 m

Observación

El informe se hizo hace 46 minutos, a las 07:00 UTC
Viento 5 kt del norte
Temperatura 19°C
Humedad 83%
Presión 1020 hPa
Visibilidad: 24.1 km
Cielo despejado

METAR: CYQB 210700Z 36005KT 15SM SKC 19/16 A3011 RMK SLP196 DENSITY ALT 600FT

Hora: 03:46 (07:46 UTC)

Pronóstico

El informe se hizo hace 2 horas y 7 minutos, a las 05:39 UTC
Pronóstico válido del 21 a las 06 UTC al 22 a las 06 UTC
Viento 3 kt con dirección variable
Visibilidad: 10 km
Escasas nubes a una altura de 25000 ft
Evolucionando progresivamente
del 21 a las 13 UTC al 21 a las 15 UTC
Viento 6 kt del este

TAF: CYQB 210539Z 2106/2206 VRB03KT P6SM FEW250 BECMG 2113/2115 08006KT RMK NXT FCST BY 211200Z

Observaciones y pronósticos meteorológicos de más de 4000 aeropuertos (mensajes METAR y TAF).

Los puntos amarillos y rojos representan las estaciones disponibles.

Ponga el ratón en el punto deseado para ver el nombre de la estación.

Haga clic para ver las observaciones y los pronósticos meteorológicos.

Para cambiar el mapa : haga clic en los botones verdes con una cruz de color negro para hacer un zoom, en el botón verde con un guión para alejar o en las flechas verdes para mapas adyacentes.


METAR-TAF: